Haines, Oregon
Current Conditions -  °F | °C
As of 3:10 AM on Monday 22 Dec 2014 (Local Time) from KBKE Reporting Station
Light Rain Light Rain  
Wind Chill: 31°   Ceiling: 1100
Heat Index: 36°   Visibility: 10mi
Dew Point: 36°   Wind: 6mph
Humidity: 100%   Direction: 170°S
Pressure: 30.1"   Gusts: NA
Location:  44.91°N, 117.94°W
Report Text: KBKE 221110Z AUTO 17005KT 10SM -RA BKN011 OVC023 02/02 A3010 RMK AO2 P0001 T00220022 TSNO $
Loading
Personal Weather Stations






























Interactive Weather Map New forecast layout! Learn more

10-Day Weather Forecast

Advertisements
Track Severe Weather on mobile